Time,TemperatureF,DewpointF,PressureIn,WindDirection,WindDirectionDegrees,WindSpeedMPH,WindSpeedGustMPH,Humidity,HourlyPrecipIn,Conditions,Clouds,dailyrainin,SoftwareType,DateUTC
2013-03-09 00:05:00,44.5,36.0,30.10,ENE,61,0.0,-999.0,73,-99.99,,,0.00,weatherlink.com 1.10,2013-03-09 08:05:00,
2013-03-09 00:20:00,43.6,37.0,30.10,ENE,61,0.0,-999.0,77,-99.99,,,0.00,weatherlink.com 1.10,2013-03-09 08:20:00,
2013-03-09 00:35:00,41.9,37.0,30.11,ENE,61,0.0,-999.0,82,-99.99,,,0.00,weatherlink.com 1.10,2013-03-09 08:35:00,
2013-03-09 00:50:00,41.6,37.0,30.11,ENE,61,0.0,-999.0,85,-99.99,,,0.00,weatherlink.com 1.10,2013-03-09 08:50:00,
2013-03-09 01:05:00,40.6,37.0,30.12,ENE,61,0.0,-999.0,88,-99.99,,,0.00,weatherlink.com 1.10,2013-03-09 09:05:00,
2013-03-09 01:20:00,40.2,38.0,30.13,ENE,61,0.0,-999.0,90,-99.99,,,0.00,weatherlink.com 1.10,2013-03-09 09:20:00,
2013-03-09 01:35:00,40.6,38.0,30.13,ENE,61,0.0,-999.0,91,-99.99,,,0.00,weatherlink.com 1.10,2013-03-09 09:35:00,
2013-03-09 01:50:00,41.1,39.0,30.14,ENE,61,0.0,-999.0,91,-99.99,,,0.00,weatherlink.com 1.10,2013-03-09 09:50:00,
2013-03-09 02:05:00,40.8,38.0,30.14,ENE,61,0.0,-999.0,91,-99.99,,,0.00,weatherlink.com 1.10,2013-03-09 10:05:00,
2013-03-09 02:20:00,40.3,38.0,30.15,ENE,61,0.0,-999.0,91,-99.99,,,0.00,weatherlink.com 1.10,2013-03-09 10:20:00,
2013-03-09 02:35:00,39.9,38.0,30.15,ENE,61,0.0,-999.0,92,-99.99,,,0.00,weatherlink.com 1.10,2013-03-09 10:35:00,
2013-03-09 02:50:00,39.9,38.0,30.16,ENE,61,0.0,-999.0,92,-99.99,,,0.00,weatherlink.com 1.10,2013-03-09 10:50:00,
2013-03-09 03:05:00,39.1,37.0,30.16,ENE,61,0.0,-999.0,93,-99.99,,,0.00,weatherlink.com 1.10,2013-03-09 11:05:00,
2013-03-09 03:19:00,38.6,37.0,30.16,ENE,61,0.0,-999.0,94,-99.99,,,0.00,weatherlink.com 1.10,2013-03-09 11:19:00,
2013-03-09 03:34:00,38.3,37.0,30.17,ENE,61,0.0,-999.0,95,-99.99,,,0.00,weatherlink.com 1.10,2013-03-09 11:34:00,
2013-03-09 03:49:00,38.2,37.0,30.18,ENE,61,0.0,-999.0,96,-99.99,,,0.00,weatherlink.com 1.10,2013-03-09 11:49:00,
2013-03-09 04:04:00,38.3,37.0,30.18,ENE,61,0.0,-999.0,96,-99.99,,,0.00,weatherlink.com 1.10,2013-03-09 12:04:00,
2013-03-09 04:19:00,38.5,38.0,30.19,ENE,61,0.0,-999.0,96,-99.99,,,0.00,weatherlink.com 1.10,2013-03-09 12:19:00,
2013-03-09 04:34:00,38.5,38.0,30.19,ENE,61,0.0,-999.0,96,-99.99,,,0.00,weatherlink.com 1.10,2013-03-09 12:34:00,
2013-03-09 04:49:00,37.9,37.0,30.19,ENE,61,0.0,-999.0,96,-99.99,,,0.00,weatherlink.com 1.10,2013-03-09 12:49:00,
2013-03-09 05:04:00,37.3,36.0,30.20,ENE,61,0.0,-999.0,96,-99.99,,,0.00,weatherlink.com 1.10,2013-03-09 13:04:00,
2013-03-09 05:19:00,37.0,36.0,30.21,ENE,61,0.0,-999.0,96,-99.99,,,0.00,weatherlink.com 1.10,2013-03-09 13:19:00,
2013-03-09 05:34:00,36.6,36.0,30.22,ENE,61,0.0,-999.0,96,-99.99,,,0.00,weatherlink.com 1.10,2013-03-09 13:34:00,
2013-03-09 05:49:00,36.3,36.0,30.22,ENE,61,0.0,-999.0,97,-99.99,,,0.00,weatherlink.com 1.10,2013-03-09 13:49:00,
2013-03-09 06:04:00,35.5,35.0,30.22,ENE,61,0.0,-999.0,97,-99.99,,,0.00,weatherlink.com 1.10,2013-03-09 14:04:00,
2013-03-09 06:19:00,36.0,36.0,30.22,ENE,61,0.0,-999.0,98,-99.99,,,0.00,weatherlink.com 1.10,2013-03-09 14:19:00,
2013-03-09 06:34:00,36.3,36.0,30.22,ENE,61,0.0,-999.0,98,-99.99,,,0.00,weatherlink.com 1.10,2013-03-09 14:34:00,
2013-03-09 06:49:00,37.0,37.0,30.23,ENE,61,0.0,-999.0,98,-99.99,,,0.00,weatherlink.com 1.10,2013-03-09 14:49:00,
2013-03-09 07:04:00,36.8,36.0,30.25,ENE,61,0.0,-999.0,98,-99.99,,,0.00,weatherlink.com 1.10,2013-03-09 15:04:00,
2013-03-09 07:19:00,36.8,36.0,30.25,ENE,61,0.0,-999.0,98,-99.99,,,0.00,weatherlink.com 1.10,2013-03-09 15:19:00,
2013-03-09 07:34:00,36.3,36.0,30.25,ENE,61,0.0,-999.0,98,-99.99,,,0.00,weatherlink.com 1.10,2013-03-09 15:34:00,
2013-03-09 07:49:00,35.6,35.0,30.27,ENE,61,0.0,-999.0,98,-99.99,,,0.00,weatherlink.com 1.10,2013-03-09 15:49:00,
2013-03-09 08:04:00,35.6,35.0,30.27,ENE,61,0.0,-999.0,98,-99.99,,,0.00,weatherlink.com 1.10,2013-03-09 16:04:00,
2013-03-09 08:20:00,36.6,36.0,30.29,ENE,63,1.0,-999.0,98,-99.99,,,0.00,weatherlink.com 1.10,2013-03-09 16:20:00,
2013-03-09 08:35:00,37.5,37.0,30.29,ENE,63,0.0,-999.0,98,-99.99,,,0.00,weatherlink.com 1.10,2013-03-09 16:35:00,
2013-03-09 08:51:00,38.6,38.0,30.30,ENE,63,0.0,-999.0,98,-99.99,,,0.00,weatherlink.com 1.10,2013-03-09 16:51:00,
2013-03-09 09:20:00,40.3,39.0,30.30,ENE,63,0.0,-999.0,93,-99.99,,,0.00,weatherlink.com 1.10,2013-03-09 17:20:00,
2013-03-09 09:34:00,41.9,39.0,30.31,ENE,59,0.0,-999.0,89,-99.99,,,0.00,weatherlink.com 1.10,2013-03-09 17:34:00,
2013-03-09 09:51:00,43.6,40.0,30.32,West,265,0.0,-999.0,86,-99.99,,,0.00,weatherlink.com 1.10,2013-03-09 17:51:00,
2013-03-09 10:05:00,45.5,40.0,30.32,West,265,0.0,-999.0,82,-99.99,,,0.00,weatherlink.com 1.10,2013-03-09 18:05:00,
2013-03-09 10:20:00,46.2,40.0,30.32,NNE,30,0.0,-999.0,80,-99.99,,,0.00,weatherlink.com 1.10,2013-03-09 18:20:00,
2013-03-09 10:35:00,46.7,41.0,30.32,WNW,296,0.0,-999.0,79,-99.99,,,0.00,weatherlink.com 1.10,2013-03-09 18:35:00,
2013-03-09 10:49:00,47.3,41.0,30.32,NW,308,0.0,-999.0,78,-99.99,,,0.00,weatherlink.com 1.10,2013-03-09 18:49:00,
2013-03-09 11:05:00,48.3,41.0,30.33,WNW,285,0.0,-999.0,76,-99.99,,,0.00,weatherlink.com 1.10,2013-03-09 19:05:00,
2013-03-09 11:20:00,49.4,41.0,30.33,WNW,292,0.0,-999.0,72,-99.99,,,0.00,weatherlink.com 1.10,2013-03-09 19:20:00,
2013-03-09 11:34:00,50.4,41.0,30.33,SSW,200,0.0,-999.0,71,-99.99,,,0.00,weatherlink.com 1.10,2013-03-09 19:34:00,
2013-03-09 11:49:00,51.4,42.0,30.33,WSW,256,0.0,-999.0,69,-99.99,,,0.00,weatherlink.com 1.10,2013-03-09 19:49:00,
2013-03-09 12:04:00,52.5,42.0,30.33,East,96,0.0,-999.0,68,-99.99,,,0.00,weatherlink.com 1.10,2013-03-09 20:04:00,
2013-03-09 12:20:00,52.6,41.0,30.33,South,182,0.0,-999.0,65,-99.99,,,0.00,weatherlink.com 1.10,2013-03-09 20:20:00,
2013-03-09 12:35:00,54.1,42.0,30.33,NW,321,3.0,-999.0,64,-99.99,,,0.00,weatherlink.com 1.10,2013-03-09 20:35:00,
2013-03-09 12:49:00,54.4,43.0,30.33,North,9,1.0,-999.0,65,-99.99,,,0.00,weatherlink.com 1.10,2013-03-09 20:49:00,
2013-03-09 13:04:00,54.2,43.0,30.33,NE,42,0.0,-999.0,67,-99.99,,,0.00,weatherlink.com 1.10,2013-03-09 21:04:00,
2013-03-09 13:20:00,54.8,44.0,30.33,East,88,2.0,-999.0,66,-99.99,,,0.00,weatherlink.com 1.10,2013-03-09 21:20:00,
2013-03-09 13:35:00,55.3,41.0,30.33,NE,35,1.0,-999.0,60,-99.99,,,0.00,weatherlink.com 1.10,2013-03-09 21:35:00,
2013-03-09 13:50:00,55.4,42.0,30.33,East,92,1.0,-999.0,61,-99.99,,,0.00,weatherlink.com 1.10,2013-03-09 21:50:00,
2013-03-09 14:05:00,56.0,42.0,30.33,NNE,12,0.0,-999.0,59,-99.99,,,0.00,weatherlink.com 1.10,2013-03-09 22:05:00,
2013-03-09 14:20:00,56.3,42.0,30.32,NE,42,0.0,-999.0,59,-99.99,,,0.00,weatherlink.com 1.10,2013-03-09 22:20:00,
2013-03-09 14:34:00,56.7,41.0,30.32,NNW,335,0.0,-999.0,56,-99.99,,,0.00,weatherlink.com 1.10,2013-03-09 22:34:00,
2013-03-09 14:50:00,56.9,43.0,30.32,East,81,0.0,-999.0,60,-99.99,,,0.00,weatherlink.com 1.10,2013-03-09 22:50:00,
2013-03-09 15:05:00,56.3,43.0,30.32,East,98,1.0,-999.0,62,-99.99,,,0.00,weatherlink.com 1.10,2013-03-09 23:05:00,
2013-03-09 15:20:00,56.2,43.0,30.32,NE,43,0.0,-999.0,62,-99.99,,,0.00,weatherlink.com 1.10,2013-03-09 23:20:00,
2013-03-09 15:35:00,55.7,42.0,30.32,East,97,2.0,-999.0,60,-99.99,,,0.00,weatherlink.com 1.10,2013-03-09 23:35:00,
2013-03-09 15:50:00,55.9,42.0,30.32,East,92,3.0,-999.0,60,-99.99,,,0.00,weatherlink.com 1.10,2013-03-09 23:50:00,
2013-03-09 16:05:00,56.2,40.0,30.32,NNE,31,0.0,-999.0,55,-99.99,,,0.00,weatherlink.com 1.10,2013-03-10 00:05:00,
2013-03-09 16:20:00,56.3,40.0,30.31,NNE,31,0.0,-999.0,54,-99.99,,,0.00,weatherlink.com 1.10,2013-03-10 00:20:00,
2013-03-09 16:34:00,56.6,39.0,30.32,NNE,29,0.0,-999.0,52,-99.99,,,0.00,weatherlink.com 1.10,2013-03-10 00:34:00,
2013-03-09 16:51:00,56.2,39.0,30.32,NNE,30,0.0,-999.0,52,-99.99,,,0.00,weatherlink.com 1.10,2013-03-10 00:51:00,
2013-03-09 17:07:00,55.4,37.0,30.32,NNE,30,0.0,-999.0,51,-99.99,,,0.00,weatherlink.com 1.10,2013-03-10 01:07:00,
2013-03-09 17:20:00,54.5,37.0,30.32,NNE,30,0.0,-999.0,53,-99.99,,,0.00,weatherlink.com 1.10,2013-03-10 01:20:00,
2013-03-09 17:36:00,53.6,37.0,30.32,NNE,30,0.0,-999.0,54,-99.99,,,0.00,weatherlink.com 1.10,2013-03-10 01:36:00,
2013-03-09 17:50:00,53.2,37.0,30.32,NNE,30,0.0,-999.0,55,-99.99,,,0.00,weatherlink.com 1.10,2013-03-10 01:50:00,
2013-03-09 18:05:00,52.8,37.0,30.33,NNE,30,0.0,-999.0,55,-99.99,,,0.00,weatherlink.com 1.10,2013-03-10 02:05:00,
2013-03-09 18:21:00,52.3,37.0,30.33,NNE,30,0.0,-999.0,57,-99.99,,,0.00,weatherlink.com 1.10,2013-03-10 02:21:00,
2013-03-09 18:36:00,51.1,37.0,30.34,NNE,30,0.0,-999.0,60,-99.99,,,0.00,weatherlink.com 1.10,2013-03-10 02:36:00,
2013-03-09 18:50:00,50.8,38.0,30.35,NNE,30,0.0,-999.0,62,-99.99,,,0.00,weatherlink.com 1.10,2013-03-10 02:50:00,
2013-03-09 19:04:00,50.5,39.0,30.35,NNE,29,0.0,-999.0,64,-99.99,,,0.00,weatherlink.com 1.10,2013-03-10 03:04:00,
2013-03-09 19:20:00,49.9,40.0,30.35,WNW,300,0.0,-999.0,68,-99.99,,,0.00,weatherlink.com 1.10,2013-03-10 03:20:00,
2013-03-09 19:35:00,48.9,40.0,30.35,WNW,300,0.0,-999.0,71,-99.99,,,0.00,weatherlink.com 1.10,2013-03-10 03:35:00,
2013-03-09 19:50:00,48.2,39.0,30.36,WNW,300,0.0,-999.0,71,-99.99,,,0.00,weatherlink.com 1.10,2013-03-10 03:50:00,
2013-03-09 20:04:00,47.6,38.0,30.36,WNW,300,0.0,-999.0,69,-99.99,,,0.00,weatherlink.com 1.10,2013-03-10 04:04:00,
2013-03-09 20:21:00,47.0,37.0,30.36,WNW,300,0.0,-999.0,69,-99.99,,,0.00,weatherlink.com 1.10,2013-03-10 04:21:00,
2013-03-09 20:35:00,47.6,37.0,30.35,WNW,300,0.0,-999.0,68,-99.99,,,0.00,weatherlink.com 1.10,2013-03-10 04:35:00,
2013-03-09 20:50:00,47.7,38.0,30.36,WNW,300,0.0,-999.0,68,-99.99,,,0.00,weatherlink.com 1.10,2013-03-10 04:50:00,
2013-03-09 21:05:00,47.7,37.0,30.36,WNW,300,0.0,-999.0,67,-99.99,,,0.00,weatherlink.com 1.10,2013-03-10 05:05:00,
2013-03-09 21:21:00,47.6,36.0,30.37,WNW,300,0.0,-999.0,65,-99.99,,,0.00,weatherlink.com 1.10,2013-03-10 05:21:00,
2013-03-09 21:35:00,47.1,34.0,30.36,WNW,300,1.0,-999.0,60,-99.99,,,0.00,weatherlink.com 1.10,2013-03-10 05:35:00,
2013-03-09 21:51:00,46.8,34.0,30.37,WNW,301,0.0,-999.0,61,-99.99,,,0.00,weatherlink.com 1.10,2013-03-10 05:51:00,
2013-03-09 22:05:00,47.3,36.0,30.38,WNW,301,0.0,-999.0,66,-99.99,,,0.00,weatherlink.com 1.10,2013-03-10 06:05:00,
2013-03-09 22:20:00,46.2,38.0,30.38,WNW,301,0.0,-999.0,72,-99.99,,,0.00,weatherlink.com 1.10,2013-03-10 06:20:00,
2013-03-09 22:36:00,44.9,38.0,30.39,WNW,302,0.0,-999.0,76,-99.99,,,0.00,weatherlink.com 1.10,2013-03-10 06:36:00,
2013-03-09 22:50:00,44.1,38.0,30.38,WNW,301,0.0,-999.0,80,-99.99,,,0.00,weatherlink.com 1.10,2013-03-10 06:50:00,
2013-03-09 23:20:00,43.3,38.0,30.38,WNW,301,0.0,-999.0,80,-99.99,,,0.00,weatherlink.com 1.10,2013-03-10 07:20:00,
2013-03-09 23:35:00,43.1,37.0,30.38,WNW,301,0.0,-999.0,80,-99.99,,,0.00,weatherlink.com 1.10,2013-03-10 07:35:00,
2013-03-09 23:50:00,42.3,36.0,30.37,WNW,301,0.0,-999.0,79,-99.99,,,0.00,weatherlink.com 1.10,2013-03-10 07:50:00,